sensor_id;sensor_type;location;lat;lon;timestamp;temperature;humidity
11126;DHT22;5617;54.046;10.676;2023-08-08T00:00:27;14.70;99.90
11126;DHT22;5617;54.046;10.676;2023-08-08T00:02:35;14.70;99.90
11126;DHT22;5617;54.046;10.676;2023-08-08T00:04:43;14.70;99.90
11126;DHT22;5617;54.046;10.676;2023-08-08T00:06:54;14.80;99.90
11126;DHT22;5617;54.046;10.676;2023-08-08T00:09:02;14.80;99.90
11126;DHT22;5617;54.046;10.676;2023-08-08T00:11:10;14.80;99.90
11126;DHT22;5617;54.046;10.676;2023-08-08T00:13:19;14.80;99.90
11126;DHT22;5617;54.046;10.676;2023-08-08T00:15:27;14.80;99.90
11126;DHT22;5617;54.046;10.676;2023-08-08T00:17:35;14.80;99.90
11126;DHT22;5617;54.046;10.676;2023-08-08T00:19:43;14.80;99.90
11126;DHT22;5617;54.046;10.676;2023-08-08T00:21:51;14.80;99.90
11126;DHT22;5617;54.046;10.676;2023-08-08T00:24:01;14.80;99.90
11126;DHT22;5617;54.046;10.676;2023-08-08T00:26:08;14.70;99.90
11126;DHT22;5617;54.046;10.676;2023-08-08T00:28:17;14.70;99.90
11126;DHT22;5617;54.046;10.676;2023-08-08T00:30:26;14.70;99.90
11126;DHT22;5617;54.046;10.676;2023-08-08T00:32:34;14.70;99.90
11126;DHT22;5617;54.046;10.676;2023-08-08T00:34:46;14.70;99.90
11126;DHT22;5617;54.046;10.676;2023-08-08T00:36:57;14.70;99.90
11126;DHT22;5617;54.046;10.676;2023-08-08T00:39:06;14.70;99.90
11126;DHT22;5617;54.046;10.676;2023-08-08T00:41:14;14.70;99.90
11126;DHT22;5617;54.046;10.676;2023-08-08T00:43:22;14.70;99.90
11126;DHT22;5617;54.046;10.676;2023-08-08T00:45:31;14.70;99.90
11126;DHT22;5617;54.046;10.676;2023-08-08T00:47:39;14.70;99.90
11126;DHT22;5617;54.046;10.676;2023-08-08T00:49:47;14.70;99.90
11126;DHT22;5617;54.046;10.676;2023-08-08T00:51:55;14.70;99.90
11126;DHT22;5617;54.046;10.676;2023-08-08T00:54:04;14.70;99.90
11126;DHT22;5617;54.046;10.676;2023-08-08T00:56:13;14.70;99.90
11126;DHT22;5617;54.046;10.676;2023-08-08T00:58:23;14.70;99.90
11126;DHT22;5617;54.046;10.676;2023-08-08T01:00:33;14.60;99.90
11126;DHT22;5617;54.046;10.676;2023-08-08T01:02:40;14.60;99.90
11126;DHT22;5617;54.046;10.676;2023-08-08T01:04:48;14.60;99.90
11126;DHT22;5617;54.046;10.676;2023-08-08T01:07:01;14.60;99.90
11126;DHT22;5617;54.046;10.676;2023-08-08T01:09:17;14.50;99.90
11126;DHT22;5617;54.046;10.676;2023-08-08T01:11:29;14.50;99.90
11126;DHT22;5617;54.046;10.676;2023-08-08T01:13:38;14.40;99.90
11126;DHT22;5617;54.046;10.676;2023-08-08T01:15:49;14.40;99.90
11126;DHT22;5617;54.046;10.676;2023-08-08T01:18:02;14.40;99.90
11126;DHT22;5617;54.046;10.676;2023-08-08T01:20:11;14.30;99.90
11126;DHT22;5617;54.046;10.676;2023-08-08T01:22:36;14.30;99.90
11126;DHT22;5617;54.046;10.676;2023-08-08T01:24:47;14.30;99.90
11126;DHT22;5617;54.046;10.676;2023-08-08T01:26:55;14.20;99.90
11126;DHT22;5617;54.046;10.676;2023-08-08T01:29:03;14.20;99.90
11126;DHT22;5617;54.046;10.676;2023-08-08T01:31:11;14.20;99.90
11126;DHT22;5617;54.046;10.676;2023-08-08T01:33:19;14.20;99.90
11126;DHT22;5617;54.046;10.676;2023-08-08T01:35:31;14.10;99.90
11126;DHT22;5617;54.046;10.676;2023-08-08T01:37:43;14.10;99.90
11126;DHT22;5617;54.046;10.676;2023-08-08T01:39:54;14.10;99.90
11126;DHT22;5617;54.046;10.676;2023-08-08T01:42:06;14.10;99.90
11126;DHT22;5617;54.046;10.676;2023-08-08T01:44:15;14.00;99.90
11126;DHT22;5617;54.046;10.676;2023-08-08T01:46:23;14.00;99.90
11126;DHT22;5617;54.046;10.676;2023-08-08T01:48:32;13.90;99.90
11126;DHT22;5617;54.046;10.676;2023-08-08T01:50:40;13.90;99.90
11126;DHT22;5617;54.046;10.676;2023-08-08T01:52:47;13.80;99.90
11126;DHT22;5617;54.046;10.676;2023-08-08T01:54:56;13.80;99.90
11126;DHT22;5617;54.046;10.676;2023-08-08T01:57:05;13.70;99.90
11126;DHT22;5617;54.046;10.676;2023-08-08T01:59:14;13.70;99.90
11126;DHT22;5617;54.046;10.676;2023-08-08T02:01:22;13.60;99.90
11126;DHT22;5617;54.046;10.676;2023-08-08T02:03:30;13.60;99.90
11126;DHT22;5617;54.046;10.676;2023-08-08T02:05:40;13.60;99.90
11126;DHT22;5617;54.046;10.676;2023-08-08T02:07:48;13.50;99.90
11126;DHT22;5617;54.046;10.676;2023-08-08T02:09:56;13.60;99.90
11126;DHT22;5617;54.046;10.676;2023-08-08T02:12:05;13.50;99.90
11126;DHT22;5617;54.046;10.676;2023-08-08T02:14:14;13.50;99.90
11126;DHT22;5617;54.046;10.676;2023-08-08T02:16:22;13.50;99.90
11126;DHT22;5617;54.046;10.676;2023-08-08T02:18:30;13.50;99.90
11126;DHT22;5617;54.046;10.676;2023-08-08T02:20:38;13.50;99.90
11126;DHT22;5617;54.046;10.676;2023-08-08T02:22:46;13.40;99.90
11126;DHT22;5617;54.046;10.676;2023-08-08T02:24:54;13.50;99.90
11126;DHT22;5617;54.046;10.676;2023-08-08T02:27:02;13.50;99.90
11126;DHT22;5617;54.046;10.676;2023-08-08T02:29:11;13.50;99.90
11126;DHT22;5617;54.046;10.676;2023-08-08T02:31:18;13.50;99.90
11126;DHT22;5617;54.046;10.676;2023-08-08T02:33:27;13.50;99.90
11126;DHT22;5617;54.046;10.676;2023-08-08T02:35:36;13.50;99.90
11126;DHT22;5617;54.046;10.676;2023-08-08T02:37:44;13.50;99.90
11126;DHT22;5617;54.046;10.676;2023-08-08T02:39:52;13.50;99.90
11126;DHT22;5617;54.046;10.676;2023-08-08T02:42:02;13.50;99.90
11126;DHT22;5617;54.046;10.676;2023-08-08T02:44:10;13.50;99.90
11126;DHT22;5617;54.046;10.676;2023-08-08T02:46:18;13.50;99.90
11126;DHT22;5617;54.046;10.676;2023-08-08T02:48:26;13.50;99.90
11126;DHT22;5617;54.046;10.676;2023-08-08T02:50:34;13.50;99.90
11126;DHT22;5617;54.046;10.676;2023-08-08T02:52:42;13.50;99.90
11126;DHT22;5617;54.046;10.676;2023-08-08T02:54:50;13.50;99.90
11126;DHT22;5617;54.046;10.676;2023-08-08T02:56:58;13.50;99.90
11126;DHT22;5617;54.046;10.676;2023-08-08T02:59:07;13.40;99.90
11126;DHT22;5617;54.046;10.676;2023-08-08T03:01:15;13.40;99.90
11126;DHT22;5617;54.046;10.676;2023-08-08T03:03:26;13.40;99.90
11126;DHT22;5617;54.046;10.676;2023-08-08T03:05:34;13.40;99.90
11126;DHT22;5617;54.046;10.676;2023-08-08T03:07:42;13.40;99.90
11126;DHT22;5617;54.046;10.676;2023-08-08T03:09:49;13.40;99.90
11126;DHT22;5617;54.046;10.676;2023-08-08T03:11:57;13.40;99.90
11126;DHT22;5617;54.046;10.676;2023-08-08T03:14:05;13.40;99.90
11126;DHT22;5617;54.046;10.676;2023-08-08T03:16:15;13.40;99.90
11126;DHT22;5617;54.046;10.676;2023-08-08T03:18:23;13.40;99.90
11126;DHT22;5617;54.046;10.676;2023-08-08T03:20:32;13.40;99.90
11126;DHT22;5617;54.046;10.676;2023-08-08T03:22:40;13.40;99.90
11126;DHT22;5617;54.046;10.676;2023-08-08T03:24:48;13.40;99.90
11126;DHT22;5617;54.046;10.676;2023-08-08T03:26:58;13.40;99.90
11126;DHT22;5617;54.046;10.676;2023-08-08T03:29:06;13.40;99.90
11126;DHT22;5617;54.046;10.676;2023-08-08T03:31:18;13.40;99.90
11126;DHT22;5617;54.046;10.676;2023-08-08T03:33:28;13.40;99.90
11126;DHT22;5617;54.046;10.676;2023-08-08T03:35:39;13.40;99.90
11126;DHT22;5617;54.046;10.676;2023-08-08T03:37:53;13.40;99.90
11126;DHT22;5617;54.046;10.676;2023-08-08T03:40:01;13.40;99.90
11126;DHT22;5617;54.046;10.676;2023-08-08T03:42:09;13.40;99.90
11126;DHT22;5617;54.046;10.676;2023-08-08T03:44:17;13.30;99.90
11126;DHT22;5617;54.046;10.676;2023-08-08T03:46:26;13.30;99.90
11126;DHT22;5617;54.046;10.676;2023-08-08T03:48:34;13.30;99.90
11126;DHT22;5617;54.046;10.676;2023-08-08T03:50:42;13.30;99.90
11126;DHT22;5617;54.046;10.676;2023-08-08T03:52:50;13.30;99.90
11126;DHT22;5617;54.046;10.676;2023-08-08T03:54:58;13.30;99.90
11126;DHT22;5617;54.046;10.676;2023-08-08T03:57:06;13.30;99.90
11126;DHT22;5617;54.046;10.676;2023-08-08T03:59:14;13.30;99.90
11126;DHT22;5617;54.046;10.676;2023-08-08T04:01:22;13.30;99.90
11126;DHT22;5617;54.046;10.676;2023-08-08T04:03:31;13.30;99.90
11126;DHT22;5617;54.046;10.676;2023-08-08T04:05:39;13.20;99.90
11126;DHT22;5617;54.046;10.676;2023-08-08T04:07:47;13.20;99.90
11126;DHT22;5617;54.046;10.676;2023-08-08T04:09:55;13.20;99.90
11126;DHT22;5617;54.046;10.676;2023-08-08T04:12:03;13.40;99.90
11126;DHT22;5617;54.046;10.676;2023-08-08T04:14:11;13.30;99.90
11126;DHT22;5617;54.046;10.676;2023-08-08T04:16:19;13.20;99.90
11126;DHT22;5617;54.046;10.676;2023-08-08T04:18:27;13.20;99.90
11126;DHT22;5617;54.046;10.676;2023-08-08T04:20:36;13.20;99.90
11126;DHT22;5617;54.046;10.676;2023-08-08T04:22:44;13.20;99.90
11126;DHT22;5617;54.046;10.676;2023-08-08T04:24:51;13.20;99.90
11126;DHT22;5617;54.046;10.676;2023-08-08T04:26:59;13.20;99.90
11126;DHT22;5617;54.046;10.676;2023-08-08T04:29:07;13.20;99.90
11126;DHT22;5617;54.046;10.676;2023-08-08T04:31:19;13.30;99.90
11126;DHT22;5617;54.046;10.676;2023-08-08T04:33:31;13.30;99.90
11126;DHT22;5617;54.046;10.676;2023-08-08T04:35:40;13.30;99.90
11126;DHT22;5617;54.046;10.676;2023-08-08T04:37:48;13.30;99.90
11126;DHT22;5617;54.046;10.676;2023-08-08T04:39:56;13.30;99.90
11126;DHT22;5617;54.046;10.676;2023-08-08T04:42:04;13.30;99.90
11126;DHT22;5617;54.046;10.676;2023-08-08T04:44:12;13.40;99.90
11126;DHT22;5617;54.046;10.676;2023-08-08T04:46:20;13.40;99.90
11126;DHT22;5617;54.046;10.676;2023-08-08T04:48:29;13.40;99.90
11126;DHT22;5617;54.046;10.676;2023-08-08T04:50:43;13.40;99.90
11126;DHT22;5617;54.046;10.676;2023-08-08T04:52:53;13.60;99.90
11126;DHT22;5617;54.046;10.676;2023-08-08T04:55:01;13.50;99.90
11126;DHT22;5617;54.046;10.676;2023-08-08T04:57:09;13.80;99.90
11126;DHT22;5617;54.046;10.676;2023-08-08T04:59:17;14.10;99.90
11126;DHT22;5617;54.046;10.676;2023-08-08T05:01:25;14.30;99.90
11126;DHT22;5617;54.046;10.676;2023-08-08T05:03:32;14.50;99.90
11126;DHT22;5617;54.046;10.676;2023-08-08T05:05:42;14.60;99.90
11126;DHT22;5617;54.046;10.676;2023-08-08T05:07:51;14.70;99.90
11126;DHT22;5617;54.046;10.676;2023-08-08T05:09:59;14.70;99.90
11126;DHT22;5617;54.046;10.676;2023-08-08T05:12:07;14.70;99.90
11126;DHT22;5617;54.046;10.676;2023-08-08T05:14:15;14.70;99.90
11126;DHT22;5617;54.046;10.676;2023-08-08T05:16:23;14.70;99.90
11126;DHT22;5617;54.046;10.676;2023-08-08T05:18:31;14.70;99.90
11126;DHT22;5617;54.046;10.676;2023-08-08T05:20:39;14.70;99.90
11126;DHT22;5617;54.046;10.676;2023-08-08T05:22:48;14.60;99.90
11126;DHT22;5617;54.046;10.676;2023-08-08T05:24:56;14.50;99.90
11126;DHT22;5617;54.046;10.676;2023-08-08T05:27:04;14.50;99.90
11126;DHT22;5617;54.046;10.676;2023-08-08T05:29:12;14.40;99.90
11126;DHT22;5617;54.046;10.676;2023-08-08T05:31:20;14.30;99.90
11126;DHT22;5617;54.046;10.676;2023-08-08T05:33:28;14.30;99.90
11126;DHT22;5617;54.046;10.676;2023-08-08T05:35:43;14.40;99.90
11126;DHT22;5617;54.046;10.676;2023-08-08T05:37:53;14.40;99.90
11126;DHT22;5617;54.046;10.676;2023-08-08T05:40:00;14.60;99.90
11126;DHT22;5617;54.046;10.676;2023-08-08T05:42:10;14.60;99.90
11126;DHT22;5617;54.046;10.676;2023-08-08T05:44:17;14.70;99.90
11126;DHT22;5617;54.046;10.676;2023-08-08T05:46:25;14.70;99.90
11126;DHT22;5617;54.046;10.676;2023-08-08T05:48:35;14.70;99.90
11126;DHT22;5617;54.046;10.676;2023-08-08T05:50:45;14.60;99.90
11126;DHT22;5617;54.046;10.676;2023-08-08T05:52:54;14.60;99.90
11126;DHT22;5617;54.046;10.676;2023-08-08T05:55:02;14.60;99.90
11126;DHT22;5617;54.046;10.676;2023-08-08T05:57:10;14.60;99.90
11126;DHT22;5617;54.046;10.676;2023-08-08T05:59:18;14.60;99.90
11126;DHT22;5617;54.046;10.676;2023-08-08T06:01:26;14.60;99.90
11126;DHT22;5617;54.046;10.676;2023-08-08T06:03:34;14.60;99.90
11126;DHT22;5617;54.046;10.676;2023-08-08T06:05:43;14.70;99.90
11126;DHT22;5617;54.046;10.676;2023-08-08T06:07:55;14.80;99.90
11126;DHT22;5617;54.046;10.676;2023-08-08T06:10:05;14.80;99.90
11126;DHT22;5617;54.046;10.676;2023-08-08T06:12:15;14.90;99.90
11126;DHT22;5617;54.046;10.676;2023-08-08T06:14:23;14.80;99.90
11126;DHT22;5617;54.046;10.676;2023-08-08T06:16:31;14.80;99.90
11126;DHT22;5617;54.046;10.676;2023-08-08T06:18:39;14.80;99.90
11126;DHT22;5617;54.046;10.676;2023-08-08T06:20:46;14.80;99.90
11126;DHT22;5617;54.046;10.676;2023-08-08T06:22:57;14.80;99.90
11126;DHT22;5617;54.046;10.676;2023-08-08T06:25:05;14.70;99.90
11126;DHT22;5617;54.046;10.676;2023-08-08T06:27:14;14.60;99.90
11126;DHT22;5617;54.046;10.676;2023-08-08T06:29:22;14.60;99.90
11126;DHT22;5617;54.046;10.676;2023-08-08T06:31:33;14.70;99.90
11126;DHT22;5617;54.046;10.676;2023-08-08T06:33:41;14.80;99.90
11126;DHT22;5617;54.046;10.676;2023-08-08T06:35:50;14.80;99.90
11126;DHT22;5617;54.046;10.676;2023-08-08T06:38:01;14.90;99.90
11126;DHT22;5617;54.046;10.676;2023-08-08T06:40:10;15.00;99.90
11126;DHT22;5617;54.046;10.676;2023-08-08T06:42:25;15.20;99.90
11126;DHT22;5617;54.046;10.676;2023-08-08T06:44:40;15.20;99.90
11126;DHT22;5617;54.046;10.676;2023-08-08T06:46:48;15.20;99.90
11126;DHT22;5617;54.046;10.676;2023-08-08T06:48:58;15.20;99.90
11126;DHT22;5617;54.046;10.676;2023-08-08T06:51:08;15.10;99.90
11126;DHT22;5617;54.046;10.676;2023-08-08T06:53:17;15.00;99.90
11126;DHT22;5617;54.046;10.676;2023-08-08T06:55:24;15.00;99.90
11126;DHT22;5617;54.046;10.676;2023-08-08T06:57:33;15.00;99.90
11126;DHT22;5617;54.046;10.676;2023-08-08T06:59:41;14.90;99.90
11126;DHT22;5617;54.046;10.676;2023-08-08T07:01:50;14.80;99.90
11126;DHT22;5617;54.046;10.676;2023-08-08T07:04:00;14.80;99.90
11126;DHT22;5617;54.046;10.676;2023-08-08T07:06:09;14.80;99.90
11126;DHT22;5617;54.046;10.676;2023-08-08T07:08:19;14.90;99.90
11126;DHT22;5617;54.046;10.676;2023-08-08T07:10:28;14.90;99.90
11126;DHT22;5617;54.046;10.676;2023-08-08T07:12:36;15.00;99.90
11126;DHT22;5617;54.046;10.676;2023-08-08T07:14:44;15.10;99.90
11126;DHT22;5617;54.046;10.676;2023-08-08T07:16:52;15.20;99.90
11126;DHT22;5617;54.046;10.676;2023-08-08T07:19:00;15.20;99.90
11126;DHT22;5617;54.046;10.676;2023-08-08T07:21:09;15.30;99.90
11126;DHT22;5617;54.046;10.676;2023-08-08T07:23:18;15.40;99.90
11126;DHT22;5617;54.046;10.676;2023-08-08T07:25:26;15.50;99.90
11126;DHT22;5617;54.046;10.676;2023-08-08T07:27:34;15.70;99.90
11126;DHT22;5617;54.046;10.676;2023-08-08T07:29:42;15.90;99.90
11126;DHT22;5617;54.046;10.676;2023-08-08T07:31:51;16.10;99.90
11126;DHT22;5617;54.046;10.676;2023-08-08T07:34:02;16.30;99.90
11126;DHT22;5617;54.046;10.676;2023-08-08T07:36:10;16.30;99.90
11126;DHT22;5617;54.046;10.676;2023-08-08T07:38:19;16.30;99.90
11126;DHT22;5617;54.046;10.676;2023-08-08T07:40:27;16.30;99.90
11126;DHT22;5617;54.046;10.676;2023-08-08T07:42:35;16.40;99.90
11126;DHT22;5617;54.046;10.676;2023-08-08T07:44:43;16.50;99.90
11126;DHT22;5617;54.046;10.676;2023-08-08T07:46:51;16.40;99.90
11126;DHT22;5617;54.046;10.676;2023-08-08T07:48:59;16.50;99.90
11126;DHT22;5617;54.046;10.676;2023-08-08T07:51:10;16.40;99.90
11126;DHT22;5617;54.046;10.676;2023-08-08T07:53:19;16.60;99.90
11126;DHT22;5617;54.046;10.676;2023-08-08T07:55:27;16.70;99.90
11126;DHT22;5617;54.046;10.676;2023-08-08T07:57:35;16.70;99.90
11126;DHT22;5617;54.046;10.676;2023-08-08T07:59:43;16.70;99.90
11126;DHT22;5617;54.046;10.676;2023-08-08T08:01:50;16.80;99.90
11126;DHT22;5617;54.046;10.676;2023-08-08T08:03:59;16.90;99.90
11126;DHT22;5617;54.046;10.676;2023-08-08T08:06:06;17.10;99.90
11126;DHT22;5617;54.046;10.676;2023-08-08T08:08:14;17.30;99.90
11126;DHT22;5617;54.046;10.676;2023-08-08T08:10:23;17.40;99.90
11126;DHT22;5617;54.046;10.676;2023-08-08T08:12:32;17.50;99.90
11126;DHT22;5617;54.046;10.676;2023-08-08T08:14:40;17.60;99.90
11126;DHT22;5617;54.046;10.676;2023-08-08T08:16:48;17.70;99.90
11126;DHT22;5617;54.046;10.676;2023-08-08T08:18:56;17.90;99.90
11126;DHT22;5617;54.046;10.676;2023-08-08T08:21:04;18.00;99.90
11126;DHT22;5617;54.046;10.676;2023-08-08T08:23:12;18.10;99.90
11126;DHT22;5617;54.046;10.676;2023-08-08T08:25:20;18.10;99.90
11126;DHT22;5617;54.046;10.676;2023-08-08T08:27:30;18.20;99.90
11126;DHT22;5617;54.046;10.676;2023-08-08T08:29:39;18.20;99.90
11126;DHT22;5617;54.046;10.676;2023-08-08T08:31:47;18.20;99.90
11126;DHT22;5617;54.046;10.676;2023-08-08T08:33:55;18.30;99.90
11126;DHT22;5617;54.046;10.676;2023-08-08T08:36:03;18.50;99.90
11126;DHT22;5617;54.046;10.676;2023-08-08T08:38:11;18.50;99.90
11126;DHT22;5617;54.046;10.676;2023-08-08T08:40:18;18.60;99.90
11126;DHT22;5617;54.046;10.676;2023-08-08T08:42:26;18.70;99.90
11126;DHT22;5617;54.046;10.676;2023-08-08T08:44:36;18.70;99.90
11126;DHT22;5617;54.046;10.676;2023-08-08T08:46:48;18.80;99.90
11126;DHT22;5617;54.046;10.676;2023-08-08T08:48:59;18.90;99.90
11126;DHT22;5617;54.046;10.676;2023-08-08T08:51:07;19.00;99.90
11126;DHT22;5617;54.046;10.676;2023-08-08T08:53:18;19.00;99.90
11126;DHT22;5617;54.046;10.676;2023-08-08T08:55:26;18.80;99.90
11126;DHT22;5617;54.046;10.676;2023-08-08T08:57:35;18.60;99.90
11126;DHT22;5617;54.046;10.676;2023-08-08T08:59:45;18.40;99.90
11126;DHT22;5617;54.046;10.676;2023-08-08T09:01:53;18.00;99.90
11126;DHT22;5617;54.046;10.676;2023-08-08T09:04:03;17.50;99.90
11126;DHT22;5617;54.046;10.676;2023-08-08T09:06:16;17.10;99.90
11126;DHT22;5617;54.046;10.676;2023-08-08T09:08:27;16.80;99.90
11126;DHT22;5617;54.046;10.676;2023-08-08T09:10:36;16.60;99.90
11126;DHT22;5617;54.046;10.676;2023-08-08T09:12:44;16.50;99.90
11126;DHT22;5617;54.046;10.676;2023-08-08T09:14:56;16.50;99.90
11126;DHT22;5617;54.046;10.676;2023-08-08T09:17:04;16.40;99.90
11126;DHT22;5617;54.046;10.676;2023-08-08T09:19:18;16.30;99.90
11126;DHT22;5617;54.046;10.676;2023-08-08T09:21:25;16.20;99.90
11126;DHT22;5617;54.046;10.676;2023-08-08T09:23:33;16.20;99.90
11126;DHT22;5617;54.046;10.676;2023-08-08T09:25:41;16.40;99.90
11126;DHT22;5617;54.046;10.676;2023-08-08T09:27:51;16.60;99.90
11126;DHT22;5617;54.046;10.676;2023-08-08T09:30:09;16.90;99.90
11126;DHT22;5617;54.046;10.676;2023-08-08T09:32:18;17.10;99.90
11126;DHT22;5617;54.046;10.676;2023-08-08T09:34:26;17.00;99.90
11126;DHT22;5617;54.046;10.676;2023-08-08T09:36:36;17.10;99.90
11126;DHT22;5617;54.046;10.676;2023-08-08T09:38:45;17.30;99.90
11126;DHT22;5617;54.046;10.676;2023-08-08T09:40:53;17.60;99.90
11126;DHT22;5617;54.046;10.676;2023-08-08T09:43:01;17.80;99.90
11126;DHT22;5617;54.046;10.676;2023-08-08T09:45:13;17.90;99.90
11126;DHT22;5617;54.046;10.676;2023-08-08T09:47:21;18.00;99.90
11126;DHT22;5617;54.046;10.676;2023-08-08T09:49:29;18.10;99.90
11126;DHT22;5617;54.046;10.676;2023-08-08T09:51:41;18.20;99.90
11126;DHT22;5617;54.046;10.676;2023-08-08T09:53:49;18.40;99.90
11126;DHT22;5617;54.046;10.676;2023-08-08T09:55:57;18.60;99.90
11126;DHT22;5617;54.046;10.676;2023-08-08T09:58:05;18.60;99.90
11126;DHT22;5617;54.046;10.676;2023-08-08T10:00:16;18.50;99.90
11126;DHT22;5617;54.046;10.676;2023-08-08T10:02:28;18.80;99.90
11126;DHT22;5617;54.046;10.676;2023-08-08T10:04:37;19.00;99.90
11126;DHT22;5617;54.046;10.676;2023-08-08T10:06:46;19.20;99.90
11126;DHT22;5617;54.046;10.676;2023-08-08T10:08:54;19.40;99.90
11126;DHT22;5617;54.046;10.676;2023-08-08T10:11:05;19.40;99.90
11126;DHT22;5617;54.046;10.676;2023-08-08T10:13:19;19.30;99.90
11126;DHT22;5617;54.046;10.676;2023-08-08T10:15:29;19.30;99.90
11126;DHT22;5617;54.046;10.676;2023-08-08T10:17:37;19.30;99.90
11126;DHT22;5617;54.046;10.676;2023-08-08T10:19:51;19.40;99.90
11126;DHT22;5617;54.046;10.676;2023-08-08T10:22:03;19.30;99.90
11126;DHT22;5617;54.046;10.676;2023-08-08T10:24:11;19.30;99.90
11126;DHT22;5617;54.046;10.676;2023-08-08T10:26:20;19.30;99.90
11126;DHT22;5617;54.046;10.676;2023-08-08T10:28:27;19.50;99.80
11126;DHT22;5617;54.046;10.676;2023-08-08T10:30:46;19.70;99.60
11126;DHT22;5617;54.046;10.676;2023-08-08T10:32:56;19.80;99.30
11126;DHT22;5617;54.046;10.676;2023-08-08T10:35:06;20.00;98.90
11126;DHT22;5617;54.046;10.676;2023-08-08T10:37:15;19.70;98.70
11126;DHT22;5617;54.046;10.676;2023-08-08T10:39:24;19.30;99.50
11126;DHT22;5617;54.046;10.676;2023-08-08T10:41:32;18.90;99.80
11126;DHT22;5617;54.046;10.676;2023-08-08T10:43:48;18.60;99.90
11126;DHT22;5617;54.046;10.676;2023-08-08T10:46:01;18.30;99.90
11126;DHT22;5617;54.046;10.676;2023-08-08T10:48:21;18.30;99.90
11126;DHT22;5617;54.046;10.676;2023-08-08T10:50:30;18.50;99.90
11126;DHT22;5617;54.046;10.676;2023-08-08T10:52:52;18.60;99.90
11126;DHT22;5617;54.046;10.676;2023-08-08T10:55:01;18.80;99.90
11126;DHT22;5617;54.046;10.676;2023-08-08T10:57:15;19.10;99.90
11126;DHT22;5617;54.046;10.676;2023-08-08T10:59:27;19.30;99.90
11126;DHT22;5617;54.046;10.676;2023-08-08T11:01:38;19.50;99.90
11126;DHT22;5617;54.046;10.676;2023-08-08T11:03:47;19.80;99.90
11126;DHT22;5617;54.046;10.676;2023-08-08T11:05:57;19.80;99.90
11126;DHT22;5617;54.046;10.676;2023-08-08T11:08:06;19.60;99.90
11126;DHT22;5617;54.046;10.676;2023-08-08T11:10:14;19.60;99.50
11126;DHT22;5617;54.046;10.676;2023-08-08T11:12:21;19.50;99.40
11126;DHT22;5617;54.046;10.676;2023-08-08T11:14:33;19.40;99.50
11126;DHT22;5617;54.046;10.676;2023-08-08T11:16:43;19.40;99.60
11126;DHT22;5617;54.046;10.676;2023-08-08T11:18:55;19.50;99.30
11126;DHT22;5617;54.046;10.676;2023-08-08T11:21:09;19.30;99.10
11126;DHT22;5617;54.046;10.676;2023-08-08T11:23:25;19.20;99.10
11126;DHT22;5617;54.046;10.676;2023-08-08T11:25:36;19.00;99.10
11126;DHT22;5617;54.046;10.676;2023-08-08T11:27:49;18.90;99.20
11126;DHT22;5617;54.046;10.676;2023-08-08T11:29:57;18.80;98.90
11126;DHT22;5617;54.046;10.676;2023-08-08T11:32:07;18.70;99.00
11126;DHT22;5617;54.046;10.676;2023-08-08T11:34:15;18.70;99.00
11126;DHT22;5617;54.046;10.676;2023-08-08T11:36:28;18.70;99.00
11126;DHT22;5617;54.046;10.676;2023-08-08T11:38:37;18.70;99.00
11126;DHT22;5617;54.046;10.676;2023-08-08T11:40:48;18.80;99.10
11126;DHT22;5617;54.046;10.676;2023-08-08T11:42:57;18.80;98.90
11126;DHT22;5617;54.046;10.676;2023-08-08T11:45:09;18.60;99.30
11126;DHT22;5617;54.046;10.676;2023-08-08T11:47:24;18.40;99.10
11126;DHT22;5617;54.046;10.676;2023-08-08T11:49:40;18.10;99.30
11126;DHT22;5617;54.046;10.676;2023-08-08T11:51:48;18.00;99.20
11126;DHT22;5617;54.046;10.676;2023-08-08T11:53:56;18.10;99.20
11126;DHT22;5617;54.046;10.676;2023-08-08T11:56:05;18.20;99.10
11126;DHT22;5617;54.046;10.676;2023-08-08T11:58:13;18.10;99.00
11126;DHT22;5617;54.046;10.676;2023-08-08T12:00:26;18.00;99.00
11126;DHT22;5617;54.046;10.676;2023-08-08T12:02:36;18.00;99.30
11126;DHT22;5617;54.046;10.676;2023-08-08T12:04:44;18.40;99.50
11126;DHT22;5617;54.046;10.676;2023-08-08T12:07:00;18.70;99.50
11126;DHT22;5617;54.046;10.676;2023-08-08T12:09:11;18.90;99.30
11126;DHT22;5617;54.046;10.676;2023-08-08T12:11:19;19.00;99.00
11126;DHT22;5617;54.046;10.676;2023-08-08T12:13:32;19.20;98.80
11126;DHT22;5617;54.046;10.676;2023-08-08T12:15:43;19.50;98.50
11126;DHT22;5617;54.046;10.676;2023-08-08T12:17:59;19.50;98.20
11126;DHT22;5617;54.046;10.676;2023-08-08T12:20:08;19.70;98.40
11126;DHT22;5617;54.046;10.676;2023-08-08T12:22:16;20.10;98.30
11126;DHT22;5617;54.046;10.676;2023-08-08T12:24:24;20.30;98.20
11126;DHT22;5617;54.046;10.676;2023-08-08T12:26:32;20.30;97.80
11126;DHT22;5617;54.046;10.676;2023-08-08T12:28:40;20.30;97.70
11126;DHT22;5617;54.046;10.676;2023-08-08T12:30:48;20.10;97.70
11126;DHT22;5617;54.046;10.676;2023-08-08T12:32:56;20.20;97.80
11126;DHT22;5617;54.046;10.676;2023-08-08T12:35:06;20.30;97.60
11126;DHT22;5617;54.046;10.676;2023-08-08T12:37:14;20.30;97.20
11126;DHT22;5617;54.046;10.676;2023-08-08T12:39:22;20.10;96.50
11126;DHT22;5617;54.046;10.676;2023-08-08T12:41:30;19.80;96.20
11126;DHT22;5617;54.046;10.676;2023-08-08T12:43:37;19.60;96.50
11126;DHT22;5617;54.046;10.676;2023-08-08T12:45:45;19.30;96.90
11126;DHT22;5617;54.046;10.676;2023-08-08T12:47:54;19.10;97.40
11126;DHT22;5617;54.046;10.676;2023-08-08T12:50:03;18.90;98.40
11126;DHT22;5617;54.046;10.676;2023-08-08T12:52:12;18.50;98.90
11126;DHT22;5617;54.046;10.676;2023-08-08T12:54:21;18.10;99.40
11126;DHT22;5617;54.046;10.676;2023-08-08T12:56:28;17.60;99.90
11126;DHT22;5617;54.046;10.676;2023-08-08T12:58:36;17.20;99.90
11126;DHT22;5617;54.046;10.676;2023-08-08T13:00:45;16.90;99.90
11126;DHT22;5617;54.046;10.676;2023-08-08T13:02:53;16.70;99.90
11126;DHT22;5617;54.046;10.676;2023-08-08T13:05:01;16.60;99.90
11126;DHT22;5617;54.046;10.676;2023-08-08T13:07:11;16.80;99.90
11126;DHT22;5617;54.046;10.676;2023-08-08T13:09:19;16.90;99.90
11126;DHT22;5617;54.046;10.676;2023-08-08T13:11:27;16.90;99.90
11126;DHT22;5617;54.046;10.676;2023-08-08T13:13:35;16.80;99.90
11126;DHT22;5617;54.046;10.676;2023-08-08T13:15:43;16.80;99.90
11126;DHT22;5617;54.046;10.676;2023-08-08T13:17:52;16.70;99.90
11126;DHT22;5617;54.046;10.676;2023-08-08T13:20:03;16.70;99.90
11126;DHT22;5617;54.046;10.676;2023-08-08T13:22:13;17.00;99.90
11126;DHT22;5617;54.046;10.676;2023-08-08T13:24:21;17.30;99.90
11126;DHT22;5617;54.046;10.676;2023-08-08T13:26:29;17.40;99.90
11126;DHT22;5617;54.046;10.676;2023-08-08T13:28:37;17.80;99.90
11126;DHT22;5617;54.046;10.676;2023-08-08T13:30:45;18.10;99.90
11126;DHT22;5617;54.046;10.676;2023-08-08T13:32:53;18.40;99.90
11126;DHT22;5617;54.046;10.676;2023-08-08T13:35:01;18.60;99.90